Time;durP1;ratioP1;P1;durP2;ratioP2;P2;SDS_P1;SDS_P2;PMS_P1;PMS_P2;Temp;Humidity;BMP_temperature;BMP_pressure;BME280_temperature;BME280_humidity;BME280_pressure;Samples;Min_cycle;Max_cycle;Signal;HPM_P1;HPM_P2
2021/10/07 00:00:53;;;;;;;8.25;3.62;;;;;;;4.38;50.20;102783.82;1758186;80;20971;-72
2021/10/07 00:03:21;;;;;;;11.05;3.55;;;;;;;4.36;50.21;102787.70;1757922;81;21118;-72
2021/10/07 00:05:48;;;;;;;6.35;3.50;;;;;;;4.33;50.34;102789.42;1757787;81;20951;-73
2021/10/07 00:08:15;;;;;;;9.95;3.77;;;;;;;4.31;50.37;102782.06;1757891;80;20995;-72
2021/10/07 00:10:42;;;;;;;5.25;3.10;;;;;;;4.29;50.59;102782.08;1758245;81;21447;-72
2021/10/07 00:13:09;;;;;;;10.75;4.35;;;;;;;4.27;50.65;102781.61;1757928;80;21464;-73
2021/10/07 00:15:36;;;;;;;11.08;3.92;;;;;;;4.25;50.80;102782.08;1758038;81;21140;-72
2021/10/07 00:18:03;;;;;;;10.82;4.00;;;;;;;4.24;50.95;102780.33;1758230;81;20869;-72
2021/10/07 00:20:29;;;;;;;6.72;3.37;;;;;;;4.21;50.96;102777.30;1758049;81;20987;-72
2021/10/07 00:22:56;;;;;;;10.43;3.37;;;;;;;4.19;51.03;102779.46;1757936;80;20948;-72
2021/10/07 00:25:23;;;;;;;7.00;3.45;;;;;;;4.18;50.99;102777.30;1758076;81;20888;-72
2021/10/07 00:27:52;;;;;;;6.70;3.90;;;;;;;4.16;51.18;102772.54;1758185;81;21768;-72
2021/10/07 00:30:21;;;;;;;14.90;4.50;;;;;;;4.15;51.21;102781.17;1757849;81;20900;-72
2021/10/07 00:40:23;;;;;;;11.48;4.35;;;;;;;4.09;51.42;102784.64;1744571;82;21155;-73
2021/10/07 00:42:51;;;;;;;7.85;3.95;;;;;;;4.09;51.40;102784.64;1744470;82;20928;-72
2021/10/07 00:45:17;;;;;;;17.27;4.90;;;;;;;4.07;51.42;102786.37;1744614;81;21351;-72
2021/10/07 00:47:44;;;;;;;16.32;5.10;;;;;;;4.07;51.47;102781.58;1744607;82;20999;-72
2021/10/07 00:50:13;;;;;;;11.73;5.08;;;;;;;4.06;51.55;102791.55;1744495;82;20933;-72
2021/10/07 00:52:40;;;;;;;12.93;4.60;;;;;;;4.04;51.68;102791.53;1744525;81;21215;-72
2021/10/07 00:55:11;;;;;;;9.73;4.67;;;;;;;4.03;51.63;102782.03;1744316;81;20991;-72
2021/10/07 00:57:37;;;;;;;12.53;5.05;;;;;;;4.01;51.74;102787.64;1744684;81;21615;-72
2021/10/07 01:00:06;;;;;;;12.73;4.90;;;;;;;4.01;51.86;102775.11;1744454;82;20901;-72
2021/10/07 01:02:33;;;;;;;9.83;4.05;;;;;;;3.99;51.90;102776.39;1744797;82;20913;-72
2021/10/07 01:05:00;;;;;;;19.77;5.65;;;;;;;3.98;52.18;102772.48;1744558;81;21243;-72
2021/10/07 01:07:27;;;;;;;9.00;4.40;;;;;;;3.95;52.12;102771.61;1744846;82;20881;-72
2021/10/07 01:09:55;;;;;;;9.20;4.42;;;;;;;3.93;52.09;102768.17;1744520;82;20920;-72
2021/10/07 01:12:22;;;;;;;16.55;5.08;;;;;;;3.92;52.04;102761.67;1744732;82;20960;-72
2021/10/07 01:14:53;;;;;;;20.30;6.30;;;;;;;3.91;52.00;102769.00;1744554;82;21516;-72
2021/10/07 01:17:22;;;;;;;16.87;5.10;;;;;;;3.90;52.13;102765.55;1744572;82;21182;-72
2021/10/07 01:19:51;;;;;;;18.05;4.97;;;;;;;3.89;52.05;102765.13;1744465;80;20960;-72
2021/10/07 01:22:19;;;;;;;14.00;5.65;;;;;;;3.88;52.05;102769.87;1744620;82;21261;-72
2021/10/07 01:24:46;;;;;;;11.12;4.78;;;;;;;3.88;52.01;102761.22;1744389;81;21339;-73
2021/10/07 01:27:13;;;;;;;14.10;5.47;;;;;;;3.86;52.02;102770.30;1744436;81;21355;-72
2021/10/07 01:29:40;;;;;;;11.68;4.78;;;;;;;3.85;52.06;102768.58;1744519;82;21123;-73
2021/10/07 01:32:08;;;;;;;14.80;5.33;;;;;;;3.85;51.99;102767.72;1744299;82;20877;-73
2021/10/07 01:34:35;;;;;;;11.00;5.15;;;;;;;3.83;52.21;102769.44;1744508;81;21015;-73
2021/10/07 01:37:02;;;;;;;10.88;5.05;;;;;;;3.83;52.18;102775.48;1744526;82;20944;-73
2021/10/07 01:39:29;;;;;;;15.58;5.42;;;;;;;3.82;52.28;102774.17;1744482;81;20956;-72
2021/10/07 01:41:57;;;;;;;11.93;5.08;;;;;;;3.81;52.22;102774.62;1744393;82;22031;-73
2021/10/07 01:44:24;;;;;;;11.33;5.20;;;;;;;3.80;52.25;102775.49;1744429;82;20921;-73
2021/10/07 01:46:51;;;;;;;14.95;4.97;;;;;;;3.78;52.42;102774.62;1744496;82;20965;-72
2021/10/07 01:49:18;;;;;;;13.40;5.47;;;;;;;3.76;52.48;102775.05;1744562;82;20877;-72
2021/10/07 01:51:45;;;;;;;7.58;4.28;;;;;;;3.75;52.59;102777.19;1744628;82;20877;-72
2021/10/07 01:54:13;;;;;;;11.70;5.55;;;;;;;3.72;52.64;102770.26;1744474;81;21962;-72
2021/10/07 01:56:40;;;;;;;15.88;6.30;;;;;;;3.71;52.64;102778.03;1744396;82;20921;-72
2021/10/07 01:59:07;;;;;;;11.50;4.80;;;;;;;3.69;52.54;102778.05;1744445;81;20913;-73
2021/10/07 02:01:34;;;;;;;16.77;5.30;;;;;;;3.67;52.62;102771.98;1744615;80;20924;-72
2021/10/07 02:04:01;;;;;;;12.28;4.75;;;;;;;3.66;52.71;102775.42;1744581;82;21418;-73
2021/10/07 02:06:29;;;;;;;13.48;5.17;;;;;;;3.66;52.67;102774.56;1744415;81;21104;-73
2021/10/07 02:08:56;;;;;;;17.17;5.00;;;;;;;3.64;52.75;102778.87;1744491;82;20908;-73
2021/10/07 02:11:23;;;;;;;13.55;4.40;;;;;;;3.63;52.79;102772.83;1744804;82;21375;-72
2021/10/07 02:13:51;;;;;;;8.93;4.05;;;;;;;3.61;52.76;102779.73;1744536;82;20905;-73
2021/10/07 02:16:17;;;;;;;13.15;4.37;;;;;;;3.61;52.73;102765.47;1744793;81;20916;-73
2021/10/07 02:18:44;;;;;;;16.00;3.52;;;;;;;3.60;52.77;102778.42;1744520;82;21119;-71
2021/10/07 02:21:11;;;;;;;9.00;3.70;;;;;;;3.59;52.79;102774.11;1744707;82;20928;-71
2021/10/07 02:23:38;;;;;;;9.15;4.10;;;;;;;3.59;52.82;102783.19;1744339;82;20964;-72
2021/10/07 02:26:05;;;;;;;9.63;3.55;;;;;;;3.58;52.97;102781.03;1744741;81;20932;-71
2021/10/07 02:28:32;;;;;;;12.68;3.60;;;;;;;3.58;52.99;102788.81;1744394;80;20953;-72
2021/10/07 02:31:01;;;;;;;10.85;3.35;;;;;;;3.58;52.96;102793.11;1744430;82;21633;-71
2021/10/07 02:33:28;;;;;;;5.42;3.50;;;;;;;3.55;52.91;102788.78;1755478;81;21002;-73
2021/10/07 02:35:55;;;;;;;8.65;3.85;;;;;;;3.56;52.91;102798.31;1757827;81;20876;-71
2021/10/07 02:38:22;;;;;;;10.80;2.87;;;;;;;3.56;52.92;102794.83;1757751;81;20884;-73
2021/10/07 02:40:49;;;;;;;8.28;4.03;;;;;;;3.55;52.85;102793.11;1757895;80;20916;-73
2021/10/07 02:43:16;;;;;;;9.35;3.85;;;;;;;3.53;52.91;102793.09;1757808;81;21982;-73
2021/10/07 02:45:43;;;;;;;14.35;3.50;;;;;;;3.53;52.94;102791.80;1757605;81;20999;-73
2021/10/07 02:48:10;;;;;;;9.98;3.02;;;;;;;3.52;52.84;102792.23;1757817;81;20927;-73
2021/10/07 02:50:37;;;;;;;17.02;4.58;;;;;;;3.50;52.91;102791.80;1757667;81;21389;-73
2021/10/07 02:53:04;;;;;;;5.25;3.50;;;;;;;3.50;52.92;102788.77;1757617;80;20924;-73
2021/10/07 02:55:31;;;;;;;11.28;4.12;;;;;;;3.50;52.99;102794.39;1757864;81;21173;-74
2021/10/07 02:57:59;;;;;;;12.75;4.47;;;;;;;3.49;52.99;102791.34;1757738;81;21006;-74
2021/10/07 03:00:25;;;;;;;11.08;2.92;;;;;;;3.49;53.00;102789.64;1757738;80;20876;-72
2021/10/07 03:02:53;;;;;;;10.03;2.92;;;;;;;3.51;52.97;102794.81;1757567;80;20943;-74
2021/10/07 03:05:20;;;;;;;9.88;3.37;;;;;;;3.50;52.96;102792.66;1757917;81;21465;-72
2021/10/07 03:07:47;;;;;;;7.60;3.33;;;;;;;3.51;52.98;102794.41;1757888;81;21535;-73
2021/10/07 03:10:14;;;;;;;8.35;3.02;;;;;;;3.51;52.92;102793.52;1757483;80;20857;-73
2021/10/07 03:12:41;;;;;;;7.58;3.37;;;;;;;3.51;53.03;102793.11;1757599;80;20955;-73
2021/10/07 03:15:09;;;;;;;11.60;3.98;;;;;;;3.51;52.97;102784.44;1757798;81;20924;-73
2021/10/07 03:17:37;;;;;;;7.60;3.85;;;;;;;3.51;53.03;102794.41;1757809;81;20987;-73
2021/10/07 03:20:07;;;;;;;9.20;3.02;;;;;;;3.52;53.08;102794.83;1757920;81;21795;-74
2021/10/07 03:22:34;;;;;;;7.45;3.37;;;;;;;3.50;52.99;102795.25;1757921;80;20893;-74
2021/10/07 03:25:01;;;;;;;18.35;3.30;;;;;;;3.51;53.08;102806.08;1757887;81;20978;-73
2021/10/07 03:27:29;;;;;;;6.80;3.00;;;;;;;3.52;52.92;102800.45;1757742;81;20935;-73
2021/10/07 03:29:56;;;;;;;7.55;2.77;;;;;;;3.53;52.94;102800.88;1757873;80;20876;-73
2021/10/07 03:32:23;;;;;;;15.55;3.33;;;;;;;3.54;52.90;102805.22;1754523;81;21146;-72
2021/10/07 03:34:50;;;;;;;6.40;3.17;;;;;;;3.53;52.85;102816.03;1744566;82;20932;-73
2021/10/07 03:37:17;;;;;;;4.60;2.22;;;;;;;3.54;52.80;102813.00;1744463;81;20972;-74
2021/10/07 03:39:44;;;;;;;5.33;2.47;;;;;;;3.55;52.83;102821.65;1744579;82;20893;-72
2021/10/07 03:42:11;;;;;;;14.73;2.45;;;;;;;3.53;52.85;102821.63;1744548;82;20913;-73
2021/10/07 03:44:38;;;;;;;5.37;2.33;;;;;;;3.53;52.86;102824.22;1744474;82;21985;-72
2021/10/07 03:47:05;;;;;;;8.23;3.37;;;;;;;3.53;52.86;102827.71;1744461;81;21366;-73
2021/10/07 03:49:32;;;;;;;9.75;3.02;;;;;;;3.53;52.85;102827.71;1744537;82;20885;-73
2021/10/07 03:51:59;;;;;;;5.97;2.87;;;;;;;3.53;52.92;102828.11;1744468;82;20912;-72
2021/10/07 03:54:26;;;;;;;8.00;2.55;;;;;;;3.53;53.03;102838.09;1744644;82;20885;-73
2021/10/07 03:56:53;;;;;;;5.30;2.62;;;;;;;3.53;52.94;102833.30;1744464;82;21135;-74
2021/10/07 03:59:20;;;;;;;5.58;2.02;;;;;;;3.51;53.06;102828.12;1744507;82;20873;-73
2021/10/07 04:01:47;;;;;;;7.83;3.17;;;;;;;3.53;53.12;102837.19;1744443;82;20934;-71
2021/10/07 04:04:14;;;;;;;5.08;2.37;;;;;;;3.51;53.10;102843.70;1744441;82;20929;-72
2021/10/07 04:06:41;;;;;;;7.80;3.30;;;;;;;3.53;53.07;102844.57;1744575;82;21514;-72
2021/10/07 04:09:08;;;;;;;7.30;2.67;;;;;;;3.53;53.06;102840.68;1744668;80;21712;-73
2021/10/07 04:11:35;;;;;;;7.17;2.30;;;;;;;3.54;53.09;102842.84;1744262;80;21489;-73
2021/10/07 04:14:02;;;;;;;6.65;3.12;;;;;;;3.55;53.07;102844.56;1744607;81;21462;-73
2021/10/07 04:16:29;;;;;;;7.60;2.70;;;;;;;3.57;53.05;102847.17;1744433;82;21457;-73
2021/10/07 04:18:56;;;;;;;10.32;3.40;;;;;;;3.59;53.05;102846.31;1744634;82;20972;-74
2021/10/07 04:21:24;;;;;;;5.80;3.47;;;;;;;3.60;53.09;102844.17;1744591;82;21509;-71
2021/10/07 04:23:51;;;;;;;15.63;3.47;;;;;;;3.60;53.07;102840.28;1744836;82;20972;-73
2021/10/07 04:26:18;;;;;;;8.18;2.90;;;;;;;3.62;53.17;102845.02;1744437;82;20940;-78
2021/10/07 04:28:45;;;;;;;14.40;2.90;;;;;;;3.61;53.16;102848.48;1744790;81;20905;-79
2021/10/07 04:31:12;;;;;;;10.28;2.70;;;;;;;3.61;53.20;102846.33;1744291;80;20929;-78
2021/10/07 04:33:40;;;;;;;6.67;3.40;;;;;;;3.62;53.34;102852.80;1752738;80;21558;-79
2021/10/07 04:36:07;;;;;;;8.40;3.75;;;;;;;3.63;53.42;102853.70;1757783;80;21391;-79
2021/10/07 04:38:35;;;;;;;14.13;2.90;;;;;;;3.64;53.44;102857.57;1758492;80;21362;-77
2021/10/07 04:41:02;;;;;;;12.43;3.17;;;;;;;3.65;53.36;102851.54;1757849;81;20991;-79
2021/10/07 04:43:29;;;;;;;10.23;2.98;;;;;;;3.68;53.39;102851.54;1758378;81;20987;-79
2021/10/07 04:45:56;;;;;;;9.25;4.55;;;;;;;3.70;53.45;102851.13;1757753;81;21523;-77
2021/10/07 04:48:23;;;;;;;23.87;4.22;;;;;;;3.72;53.48;102863.67;1758112;81;20927;-80
2021/10/07 04:50:51;;;;;;;9.88;3.37;;;;;;;3.77;53.37;102855.91;1757742;81;20943;-78
2021/10/07 04:53:18;;;;;;;11.50;4.50;;;;;;;3.81;53.41;102861.55;1758388;80;20920;-78
2021/10/07 04:55:45;;;;;;;6.17;3.60;;;;;;;3.88;53.32;102858.55;1757721;81;20888;-77
2021/10/07 04:58:12;;;;;;;9.30;3.35;;;;;;;3.93;53.50;102860.32;1757715;81;21141;-75
2021/10/07 05:00:39;;;;;;;7.33;3.47;;;;;;;4.00;53.26;102855.98;1757892;80;20885;-76
2021/10/07 05:03:06;;;;;;;8.28;2.98;;;;;;;4.06;53.13;102859.05;1758077;81;20915;-78
2021/10/07 05:05:34;;;;;;;8.18;4.00;;;;;;;4.11;52.97;102856.03;1757995;80;20892;-77
2021/10/07 05:08:01;;;;;;;12.55;4.28;;;;;;;4.14;52.82;102862.11;1758071;81;20896;-78
2021/10/07 05:10:28;;;;;;;14.23;4.25;;;;;;;4.18;52.85;102864.30;1757854;81;21156;-76
2021/10/07 05:12:56;;;;;;;15.58;4.03;;;;;;;4.24;52.69;102862.13;1757393;81;20927;-78
2021/10/07 05:15:24;;;;;;;19.85;4.40;;;;;;;4.39;52.31;102869.96;1766136;81;20991;-78
2021/10/07 05:17:52;;;;;;;9.18;5.17;;;;;;;4.55;52.12;102866.95;1757891;81;20940;-78
2021/10/07 05:20:19;;;;;;;8.55;4.10;;;;;;;4.69;51.60;102873.45;1757667;81;20959;-76
2021/10/07 05:22:47;;;;;;;7.65;3.98;;;;;;;4.78;51.46;102864.39;1757788;80;21609;-77
2021/10/07 05:25:14;;;;;;;14.83;4.00;;;;;;;4.93;51.49;102874.77;1758098;81;21655;-76
2021/10/07 05:27:41;;;;;;;9.30;4.50;;;;;;;5.16;50.43;102874.77;1757824;81;20896;-76
2021/10/07 05:30:08;;;;;;;15.75;5.22;;;;;;;5.45;50.22;102874.27;1758162;80;21399;-77
2021/10/07 05:32:36;;;;;;;10.35;4.12;;;;;;;5.71;49.65;102878.97;1756841;81;20904;-77
2021/10/07 05:35:04;;;;;;;20.08;4.05;;;;;;;6.07;49.13;102874.55;1744445;82;21586;-76
2021/10/07 05:37:32;;;;;;;11.83;5.42;;;;;;;6.62;47.87;102888.53;1744441;81;20925;-76
2021/10/07 05:39:59;;;;;;;11.50;5.62;;;;;;;7.32;45.95;102874.48;1744707;82;20929;-76
2021/10/07 05:42:26;;;;;;;17.45;5.78;;;;;;;8.04;45.27;102880.63;1744332;82;20885;-76
2021/10/07 05:44:53;;;;;;;13.13;5.37;;;;;;;8.82;43.26;102885.19;1744812;82;20849;-78
2021/10/07 05:47:20;;;;;;;17.25;5.30;;;;;;;9.53;41.69;102883.05;1744451;82;21496;-78
2021/10/07 05:49:47;;;;;;;11.60;5.62;;;;;;;10.19;40.80;102885.23;1744725;80;20865;-78
2021/10/07 05:52:14;;;;;;;12.65;6.50;;;;;;;10.73;39.09;102889.67;1744349;81;20854;-76
2021/10/07 05:54:41;;;;;;;12.60;5.83;;;;;;;11.14;38.75;102889.56;1744865;81;21415;-77
2021/10/07 05:57:11;;;;;;;12.13;5.50;;;;;;;11.45;37.92;102883.47;1744580;82;20948;-77
2021/10/07 05:59:39;;;;;;;16.80;6.83;;;;;;;11.73;37.43;102883.57;1744829;81;21934;-76
2021/10/07 06:02:06;;;;;;;11.85;6.28;;;;;;;12.07;36.80;102887.87;1744308;82;20889;-79
2021/10/07 06:04:32;;;;;;;12.98;5.72;;;;;;;12.43;35.51;102874.92;1745129;82;20921;-78
2021/10/07 06:06:59;;;;;;;10.85;6.78;;;;;;;12.69;35.59;102875.84;1744437;82;20949;-75
2021/10/07 06:09:26;;;;;;;24.67;8.40;;;;;;;12.98;35.32;102880.59;1744668;82;20916;-75
2021/10/07 06:11:53;;;;;;;18.02;6.75;;;;;;;13.28;34.09;102874.77;1744513;80;21112;-75
2021/10/07 06:14:23;;;;;;;12.07;6.22;;;;;;;13.46;34.25;102884.66;1744318;82;21024;-76
2021/10/07 06:16:53;;;;;;;9.03;5.60;;;;;;;13.61;33.66;102885.03;1744603;81;21479;-75
2021/10/07 06:19:24;;;;;;;9.85;5.28;;;;;;;13.81;32.94;102889.57;1744323;80;21406;-75
2021/10/07 06:21:52;;;;;;;14.75;6.25;;;;;;;13.81;32.94;102889.57;1744508;82;20964;-74
2021/10/07 06:24:19;;;;;;;11.48;6.85;;;;;;;13.98;32.99;102884.49;1744651;81;22120;-75
2021/10/07 06:26:46;;;;;;;14.18;7.30;;;;;;;14.23;32.50;102882.27;1744222;81;20948;-75
2021/10/07 06:29:13;;;;;;;15.13;7.85;;;;;;;14.62;32.21;102884.25;1744508;82;21457;-74
2021/10/07 06:31:40;;;;;;;16.35;7.20;;;;;;;14.99;31.54;102881.41;1744645;82;20972;-76
2021/10/07 06:34:07;;;;;;;20.37;7.65;;;;;;;15.09;31.17;102872.14;1744368;82;21520;-74
2021/10/07 06:36:34;;;;;;;16.10;7.30;;;;;;;15.24;31.00;102874.60;1744401;82;21118;-76
2021/10/07 06:39:02;;;;;;;11.40;7.35;;;;;;;15.40;30.50;102865.53;1744636;81;20896;-76
2021/10/07 06:41:29;;;;;;;17.95;6.97;;;;;;;15.17;30.44;102858.62;1744906;82;20944;-77
2021/10/07 06:43:56;;;;;;;14.58;6.53;;;;;;;14.83;30.70;102864.88;1744392;82;20905;-75
2021/10/07 06:46:25;;;;;;;19.85;7.35;;;;;;;14.40;30.98;102865.73;1744391;81;20932;-76
2021/10/07 06:48:55;;;;;;;21.60;7.85;;;;;;;13.83;31.83;102860.05;1744452;81;20924;-76
2021/10/07 06:51:27;;;;;;;18.67;7.20;;;;;;;13.45;32.48;102857.02;1744454;82;20924;-75
2021/10/07 06:53:56;;;;;;;12.50;8.70;;;;;;;13.14;32.75;102851.52;1744445;81;20897;-76
2021/10/07 06:56:24;;;;;;;15.90;8.30;;;;;;;12.91;33.44;102856.70;1744488;82;20922;-76
2021/10/07 06:58:54;;;;;;;15.18;6.55;;;;;;;13.01;33.60;102856.34;1744739;81;20897;-75
2021/10/07 07:01:28;;;;;;;16.55;7.67;;;;;;;13.47;33.29;102852.55;1744595;82;21123;-78
2021/10/07 07:03:56;;;;;;;17.77;7.75;;;;;;;14.74;30.67;102837.53;1744546;82;20960;-77
2021/10/07 07:06:24;;;;;;;15.43;6.65;;;;;;;14.74;30.67;102837.53;1744436;82;21466;-76
2021/10/07 07:08:52;;;;;;;21.10;7.25;;;;;;;15.33;30.66;102833.22;1744495;81;20893;-75
2021/10/07 07:11:19;;;;;;;28.45;6.92;;;;;;;15.87;29.72;102839.57;1744737;80;20963;-77
2021/10/07 07:13:46;;;;;;;22.60;6.08;;;;;;;16.46;28.01;102839.44;1744565;81;21306;-77
2021/10/07 07:16:14;;;;;;;24.15;5.85;;;;;;;16.93;27.81;102823.81;1744987;81;20877;-79
2021/10/07 07:18:41;;;;;;;19.20;5.67;;;;;;;17.48;26.56;102825.84;1745165;81;20921;-78
2021/10/07 07:21:08;;;;;;;20.05;6.85;;;;;;;17.92;25.30;102845.11;1744649;81;20939;-79
2021/10/07 07:23:36;;;;;;;27.20;6.85;;;;;;;18.08;24.37;102827.39;1744606;82;20933;-77
2021/10/07 07:26:03;;;;;;;24.60;5.67;;;;;;;18.26;24.89;102827.30;1744615;82;21124;-79
2021/10/07 07:28:30;;;;;;;30.35;6.05;;;;;;;18.49;24.10;102832.60;1744511;82;21455;-80
2021/10/07 07:30:57;;;;;;;23.12;8.20;;;;;;;18.74;23.92;102830.68;1744787;82;21002;-75
2021/10/07 07:33:27;;;;;;;26.30;6.22;;;;;;;19.00;23.16;102814.05;1744764;82;21078;-79
2021/10/07 07:35:53;;;;;;;17.95;5.53;;;;;;;19.29;22.88;102811.41;1744615;81;20951;-77
2021/10/07 07:38:19;;;;;;;14.90;4.70;;;;;;;19.54;22.91;102817.41;1744509;82;21469;-77
2021/10/07 07:40:46;;;;;;;24.60;5.25;;;;;;;19.85;22.54;102808.80;1744581;82;21458;-78
2021/10/07 07:43:18;;;;;;;18.23;4.65;;;;;;;20.02;21.56;102803.73;1744646;82;20873;-77
2021/10/07 07:45:42;;;;;;;17.40;3.47;;;;;;;20.25;21.74;102808.41;1744431;81;20921;-75
2021/10/07 07:48:09;;;;;;;19.40;4.35;;;;;;;20.42;19.70;102807.75;1744809;82;21012;-77
2021/10/07 07:50:36;;;;;;;22.55;4.50;;;;;;;20.47;19.94;102801.14;1744686;80;21156;-76
2021/10/07 07:53:03;;;;;;;27.95;5.30;;;;;;;20.74;19.78;102810.92;1744815;80;20964;-78
2021/10/07 07:55:30;;;;;;;29.25;4.65;;;;;;;20.88;18.51;102810.00;1744556;82;20893;-72
2021/10/07 07:57:57;;;;;;;24.43;4.33;;;;;;;20.84;19.19;102797.83;1744996;82;20932;-77
2021/10/07 08:00:24;;;;;;;27.95;5.08;;;;;;;20.96;18.85;102801.45;1744548;80;20885;-73
2021/10/07 08:02:51;;;;;;;19.42;5.90;;;;;;;21.12;18.94;102802.08;1744610;82;21146;-72
2021/10/07 08:05:18;;;;;;;23.12;3.70;;;;;;;21.34;18.65;102796.08;1744659;80;21375;-74
2021/10/07 08:07:45;;;;;;;29.37;4.45;;;;;;;21.49;18.40;102788.34;1744887;82;20964;-73
2021/10/07 08:10:13;;;;;;;33.10;5.22;;;;;;;21.60;17.57;102790.24;1744494;81;20960;-74
2021/10/07 08:12:40;;;;;;;23.25;4.50;;;;;;;21.51;17.70;102791.76;1744901;81;21421;-73
2021/10/07 08:15:09;;;;;;;30.48;4.25;;;;;;;21.56;17.83;102789.24;1744628;82;21162;-76
2021/10/07 08:17:37;;;;;;;24.92;3.95;;;;;;;21.73;17.62;102791.55;1744809;82;20881;-74
2021/10/07 08:20:07;;;;;;;27.48;4.87;;;;;;;21.75;17.76;102784.28;1744583;82;20854;-74
2021/10/07 08:22:36;;;;;;;26.95;3.90;;;;;;;21.72;17.65;102784.03;1744855;82;20940;-78
2021/10/07 08:25:05;;;;;;;28.07;3.75;;;;;;;21.70;17.97;102779.28;1744498;82;21051;-75
2021/10/07 08:27:42;;;;;;;27.32;5.65;;;;;;;21.75;17.50;102783.44;1744502;80;21143;-78
2021/10/07 08:30:14;;;;;;;10.93;2.90;;;;;;;21.85;17.67;102777.77;1744314;81;20980;-77
2021/10/07 08:32:41;;;;;;;18.02;3.52;;;;;;;22.16;18.01;102776.34;1708873;82;20897;-78
2021/10/07 08:35:08;;;;;;;16.80;3.33;;;;;;;22.34;17.62;102777.67;1714076;82;21414;-76
2021/10/07 08:37:36;;;;;;;33.40;5.05;;;;;;;22.39;17.32;102778.66;1716468;83;20901;-78
2021/10/07 08:40:05;;;;;;;10.78;2.60;;;;;;;22.12;17.64;102781.54;1716466;83;21991;-77
2021/10/07 08:42:33;;;;;;;22.22;4.20;;;;;;;22.06;18.33;102780.19;1716342;83;20975;-76
2021/10/07 08:45:01;;;;;;;13.32;3.47;;;;;;;22.06;17.71;102782.02;1716652;82;21506;-77
2021/10/07 08:47:30;;;;;;;17.82;3.42;;;;;;;22.06;18.04;102771.33;1716530;82;21385;-76
2021/10/07 08:49:57;;;;;;;20.32;2.75;;;;;;;22.28;18.04;102788.83;1716881;83;21373;-77
2021/10/07 08:52:23;;;;;;;21.97;3.08;;;;;;;22.45;16.73;102779.51;1716528;82;21515;-74
2021/10/07 08:54:51;;;;;;;23.05;3.30;;;;;;;22.39;16.11;102785.80;1716323;83;20924;-76
2021/10/07 08:57:19;;;;;;;14.90;3.30;;;;;;;22.24;16.26;102783.83;1716465;83;20927;-73
2021/10/07 08:59:46;;;;;;;10.65;3.37;;;;;;;22.17;16.50;102770.04;1716266;83;20927;-76
2021/10/07 09:02:28;;;;;;;13.48;3.25;;;;;;;22.15;16.15;102779.50;1716458;83;20951;-78
2021/10/07 09:04:55;;;;;;;15.13;3.42;;;;;;;22.01;16.12;102770.80;1752100;81;21501;-76
2021/10/07 09:07:23;;;;;;;12.80;3.45;;;;;;;21.73;16.28;102796.41;1758400;81;21007;-74
2021/10/07 09:09:53;;;;;;;25.65;4.60;;;;;;;21.55;16.48;102782.21;1752550;80;20948;-75
2021/10/07 09:12:20;;;;;;;21.93;4.37;;;;;;;21.52;16.55;102775.25;1709704;82;20983;-75
2021/10/07 09:14:48;;;;;;;14.35;3.58;;;;;;;21.47;16.92;102771.58;1752509;82;20885;-76
2021/10/07 09:17:17;;;;;;;16.32;3.42;;;;;;;21.44;16.90;102766.97;1752534;80;21082;-77
2021/10/07 09:19:47;;;;;;;16.20;3.95;;;;;;;21.45;16.98;102757.98;1752728;82;21332;-78
2021/10/07 09:22:26;;;;;;;16.12;7.08;;;;;;;21.61;17.21;102763.93;1752215;81;20888;-76
2021/10/07 09:25:03;;;;;;;17.23;4.40;;;;;;;21.70;16.44;102756.58;1752710;80;20936;-75
2021/10/07 09:27:33;;;;;;;22.67;4.67;;;;;;;21.63;16.74;102763.34;1752549;81;20936;-76
2021/10/07 09:30:07;;;;;;;11.85;4.50;;;;;;;21.66;16.92;102760.43;1752794;82;23074;-78
2021/10/07 09:32:41;;;;;;;;;;;;;;;21.72;16.79;102755.11;1755132;82;21315;-75
2021/10/07 09:35:09;;;;;;;21.62;4.30;;;;;;;21.63;16.76;102759.79;1755658;81;20116;-74
2021/10/07 09:37:43;;;;;;;19.55;4.70;;;;;;;21.43;16.70;102751.44;1757729;81;21401;-74
2021/10/07 09:40:21;;;;;;;18.12;4.37;;;;;;;21.45;16.81;102755.30;1758047;81;20936;-74
2021/10/07 09:42:56;;;;;;;11.15;3.47;;;;;;;21.58;16.92;102753.94;1757721;81;21134;-75
2021/10/07 09:45:25;;;;;;;23.62;3.25;;;;;;;21.83;17.25;102757.87;1756734;81;20948;-75
2021/10/07 09:48:07;;;;;;;11.70;3.00;;;;;;;21.98;17.71;102754.52;1758252;81;21540;-74
2021/10/07 09:50:39;;;;;;;20.40;3.33;;;;;;;22.09;17.87;102749.22;1757804;81;20940;-76
2021/10/07 09:53:13;;;;;;;15.15;3.65;;;;;;;22.29;17.88;102740.22;1758439;80;21342;-76
2021/10/07 09:55:48;;;;;;;20.97;3.17;;;;;;;22.52;17.74;102738.44;1757843;80;21133;-78
2021/10/07 09:58:19;;;;;;;16.30;3.15;;;;;;;22.72;17.42;102735.55;1759579;81;20968;-74
2021/10/07 10:00:54;;;;;;;10.40;2.83;;;;;;;22.90;16.87;102731.92;1761024;81;20931;-75
2021/10/07 10:03:25;;;;;;;19.48;3.83;;;;;;;23.03;16.80;102734.52;1760729;81;20888;-75
2021/10/07 10:05:50;;;;;;;14.25;3.90;;;;;;;23.15;16.22;102738.41;1759687;80;20952;-75
2021/10/07 10:08:19;;;;;;;18.12;3.80;;;;;;;23.13;15.71;102732.33;1761683;81;21052;-77
2021/10/07 10:10:47;;;;;;;16.65;3.58;;;;;;;23.23;15.94;102730.24;1761264;81;20956;-78
2021/10/07 10:13:15;;;;;;;9.95;3.37;;;;;;;23.24;16.23;102723.93;1761570;81;20881;-78
2021/10/07 10:15:43;;;;;;;11.63;3.02;;;;;;;23.30;16.43;102727.42;1759779;80;20896;-77
2021/10/07 10:18:13;;;;;;;17.23;4.10;;;;;;;23.37;16.16;102728.66;1758449;81;21006;-76
2021/10/07 10:20:45;;;;;;;14.40;4.03;;;;;;;23.23;15.46;102719.04;1758182;81;21131;-77
2021/10/07 10:23:17;;;;;;;9.25;3.65;;;;;;;22.91;15.84;102713.08;1758791;81;20888;-77
2021/10/07 10:25:54;;;;;;;20.23;3.17;;;;;;;22.69;15.63;102710.39;1758180;80;20952;-78
2021/10/07 10:28:52;;;;;;;16.77;3.77;;;;;;;22.54;16.06;102715.11;1704501;84;21000;-77
2021/10/07 10:31:36;;;;;;;17.12;3.15;;;;;;;22.45;15.93;102703.30;1674812;85;21043;-78
2021/10/07 10:34:10;;;;;;;15.00;2.92;;;;;;;22.43;15.92;102708.41;1741979;82;21140;-76
2021/10/07 10:36:53;;;;;;;17.92;3.70;;;;;;;22.43;15.69;102711.08;1736629;82;20877;-78
2021/10/07 10:39:37;;;;;;;9.43;3.27;;;;;;;22.33;16.03;102698.42;1712514;83;21156;-80
2021/10/07 10:42:19;;;;;;;20.77;4.22;;;;;;;22.24;16.04;102700.48;1712434;83;21007;-77
2021/10/07 10:44:54;;;;;;;15.30;4.45;;;;;;;22.13;16.41;102690.57;1712486;83;21487;-78
2021/10/07 10:49:50;;;;;;;19.02;3.65;;;;;;;22.01;16.38;102679.95;1816296;79;22167;-78
2021/10/07 10:52:37;;;;;;;15.00;2.83;;;;;;;21.96;16.04;102688.32;1789355;80;21623;-78
2021/10/07 10:55:12;;;;;;;25.23;4.08;;;;;;;21.68;16.24;102689.56;1789195;80;21563;-78
2021/10/07 10:57:49;;;;;;;18.73;3.37;;;;;;;21.34;16.37;102689.31;1789432;80;20832;-79
2021/10/07 11:00:35;;;;;;;14.38;3.40;;;;;;;21.02;16.34;102682.31;1789361;80;20967;-77
2021/10/07 11:03:26;;;;;;;10.30;3.17;;;;;;;20.59;16.21;102690.20;1788312;80;20900;-79
2021/10/07 11:06:02;;;;;;;11.63;3.37;;;;;;;20.02;16.85;102676.72;1789537;80;21472;-78
2021/10/07 11:08:32;;;;;;;18.10;3.30;;;;;;;19.64;17.48;102668.60;1789396;80;20888;-78
2021/10/07 11:11:00;;;;;;;12.58;3.52;;;;;;;19.30;17.67;102663.27;1789281;80;20916;-78
2021/10/07 11:13:33;;;;;;;14.43;3.02;;;;;;;18.95;18.33;102670.37;1789317;80;20939;-79
2021/10/07 11:16:03;;;;;;;13.75;3.22;;;;;;;18.61;18.98;102669.30;1789693;80;20903;-79
2021/10/07 11:18:35;;;;;;;8.33;3.35;;;;;;;18.30;19.76;102663.67;1789386;80;20895;-79
2021/10/07 11:21:15;;;;;;;8.83;2.60;;;;;;;18.02;20.03;102671.09;1789656;79;21127;-78
2021/10/07 11:23:43;;;;;;;11.25;3.22;;;;;;;17.78;20.62;102657.41;1789163;80;20844;-75
2021/10/07 11:26:11;;;;;;;14.68;3.17;;;;;;;17.61;20.77;102649.11;1789868;80;21321;-78
2021/10/07 11:28:41;;;;;;;19.37;3.95;;;;;;;17.34;20.24;102663.44;1789447;80;20967;-76
2021/10/07 11:31:20;;;;;;;14.93;2.55;;;;;;;17.04;20.88;102654.93;1789458;80;21400;-77
2021/10/07 11:33:53;;;;;;;22.93;3.52;;;;;;;16.65;21.13;102661.42;1789881;80;21116;-78
2021/10/07 11:36:25;;;;;;;9.98;2.47;;;;;;;16.33;21.59;102656.00;1789700;80;20915;-78
2021/10/07 11:38:53;;;;;;;14.68;3.02;;;;;;;16.08;22.28;102651.59;1789333;80;20971;-78
2021/10/07 11:41:23;;;;;;;8.65;2.25;;;;;;;15.94;22.97;102660.20;1789684;79;21418;-78